Time;durP1;ratioP1;P1;durP2;ratioP2;P2;SDS_P1;SDS_P2;PMS_P1;PMS_P2;Temp;Humidity;BMP_temperature;BMP_pressure;BME280_temperature;BME280_humidity;BME280_pressure;Samples;Min_cycle;Max_cycle;Signal;HPM_P1;HPM_P2
2022/06/20 00:03:45;;;;;;;8.48;3.17;;;18.10;99.90;;;;;;6704802;88;20202;-78
2022/06/20 00:13:48;;;;;;;8.20;2.97;;;18.00;99.90;;;;;;6711302;88;20239;-79
2022/06/20 00:23:49;;;;;;;8.00;3.55;;;17.80;99.90;;;;;;6711267;88;20234;-79
2022/06/20 00:34:31;;;;;;;9.60;4.10;;;17.60;99.90;;;;;;6749503;76;20154;-79
2022/06/20 00:44:35;;;;;;;9.73;5.80;;;17.60;99.90;;;;;;6713590;88;20311;-80
2022/06/20 00:54:45;;;;;;;13.53;8.70;;;17.40;99.90;;;;;;6705304;88;20198;-80
2022/06/20 01:05:00;;;;;;;16.05;10.25;;;16.60;99.90;;;;;;6689162;88;20194;-78
2022/06/20 01:15:00;;;;;;;21.00;14.43;;;16.40;99.90;;;;;;6710379;88;20211;-79
2022/06/20 01:25:10;;;;;;;26.12;15.68;;;16.10;99.90;;;;;;6712814;88;20229;-79
2022/06/20 01:37:23;;;;;;;29.83;16.67;;;15.70;99.90;;;;;;6706040;88;20362;-79
2022/06/20 01:55:55;;;;;;;28.15;16.50;;;15.20;99.90;;;;;;6709436;88;20175;-77
2022/06/20 02:05:56;;;;;;;25.77;15.57;;;15.30;99.90;;;;;;6708749;88;20236;-77
2022/06/20 02:16:02;;;;;;;29.80;18.00;;;15.20;99.90;;;;;;6706913;88;20231;-77
2022/06/20 02:26:06;;;;;;;33.63;19.80;;;15.10;99.90;;;;;;6713514;88;20669;-77
2022/06/20 02:36:08;;;;;;;39.03;20.95;;;15.10;99.90;;;;;;6706676;88;20202;-78
2022/06/20 02:46:11;;;;;;;30.85;18.65;;;15.10;99.90;;;;;;6702704;88;20217;-78
2022/06/20 02:56:18;;;;;;;27.13;17.48;;;15.00;99.90;;;;;;6707703;88;20199;-78
2022/06/20 03:06:36;;;;;;;25.95;16.33;;;15.10;99.90;;;;;;6706312;88;20199;-77
2022/06/20 03:16:39;;;;;;;29.52;19.05;;;15.30;99.90;;;;;;6703073;88;20203;-77
2022/06/20 03:26:40;;;;;;;32.25;19.85;;;15.00;99.90;;;;;;6706215;88;20241;-78
2022/06/20 03:36:42;;;;;;;26.40;16.52;;;15.00;99.90;;;;;;6704814;88;20316;-78
2022/06/20 03:47:07;;;;;;;26.75;17.02;;;14.90;99.90;;;;;;6703695;88;20233;-79
2022/06/20 03:57:37;;;;;;;28.57;17.33;;;14.90;99.90;;;;;;6703058;88;20230;-78
2022/06/20 04:07:57;;;;;;;24.83;15.85;;;14.70;99.90;;;;;;6697638;88;20664;-78
2022/06/20 04:18:28;;;;;;;27.20;16.75;;;14.60;99.90;;;;;;6706953;88;20290;-78
2022/06/20 04:28:38;;;;;;;31.77;20.62;;;14.40;99.90;;;;;;6711915;88;20195;-79
2022/06/20 04:38:46;;;;;;;37.97;22.15;;;14.20;99.90;;;;;;6714005;88;20286;-78
2022/06/20 04:48:49;;;;;;;42.55;25.77;;;13.90;99.90;;;;;;6705995;88;20191;-79
2022/06/20 04:58:53;;;;;;;50.10;27.30;;;13.90;99.90;;;;;;6707517;88;21012;-78
2022/06/20 05:09:23;;;;;;;48.72;27.48;;;13.80;99.90;;;;;;6706798;88;20202;-79
2022/06/20 05:19:32;;;;;;;44.35;25.37;;;13.70;99.90;;;;;;6712700;88;20200;-78
2022/06/20 05:29:35;;;;;;;46.10;24.90;;;13.70;99.90;;;;;;6699755;88;20221;-78
2022/06/20 05:39:44;;;;;;;34.90;22.37;;;13.80;99.90;;;;;;6704385;88;20719;-78
2022/06/20 05:49:50;;;;;;;23.05;16.35;;;13.90;99.90;;;;;;6706722;88;20248;-78
2022/06/20 06:00:12;;;;;;;24.55;17.05;;;14.20;99.90;;;;;;6715611;88;20210;-78
2022/06/20 06:10:26;;;;;;;31.42;19.00;;;14.30;99.90;;;;;;6700033;88;20194;-77
2022/06/20 06:20:30;;;;;;;28.95;19.25;;;14.10;99.90;;;;;;6693347;88;20179;-77
2022/06/20 06:30:45;;;;;;;27.98;19.27;;;13.90;99.90;;;;;;6697879;88;20636;-78
2022/06/20 06:40:48;;;;;;;;;;;14.20;99.90;;;;;;6696899;88;20323;-77
2022/06/20 06:50:55;;;;;;;29.58;19.23;;;14.20;99.90;;;;;;6692862;88;20098;-76
2022/06/20 07:01:13;;;;;;;28.98;19.05;;;14.10;99.90;;;;;;6704793;88;20195;-77
2022/06/20 07:11:25;;;;;;;28.08;18.05;;;14.30;99.90;;;;;;6701888;88;20208;-76
2022/06/20 07:21:29;;;;;;;18.25;12.80;;;14.50;99.90;;;;;;6700395;88;20195;-77
2022/06/20 07:31:33;;;;;;;17.95;12.43;;;14.50;99.90;;;;;;6703968;88;20186;-78
2022/06/20 07:42:04;;;;;;;17.70;9.05;;;14.40;99.90;;;;;;6703171;88;20652;-77
2022/06/20 07:52:25;;;;;;;11.73;7.10;;;14.30;99.90;;;;;;6703059;88;20261;-79
2022/06/20 08:02:46;;;;;;;9.68;5.22;;;14.00;99.90;;;;;;6702810;88;20656;-79
2022/06/20 08:13:04;;;;;;;8.50;4.82;;;14.00;99.90;;;;;;6707921;88;20714;-80
2022/06/20 08:23:14;;;;;;;7.50;3.75;;;13.60;99.90;;;;;;6708555;88;20585;-80
2022/06/20 08:33:24;;;;;;;9.65;3.40;;;12.80;99.90;;;;;;6711393;88;20201;-79
2022/06/20 08:43:44;;;;;;;8.75;3.37;;;12.50;99.90;;;;;;6717469;88;20212;-80
2022/06/20 08:54:30;;;;;;;9.95;4.30;;;12.10;99.90;;;;;;6707736;88;20885;-80
2022/06/20 09:04:45;;;;;;;8.63;4.47;;;12.40;99.90;;;;;;6697990;88;20370;-80
2022/06/20 09:15:01;;;;;;;8.53;3.87;;;12.90;99.90;;;;;;6694570;88;20184;-81
2022/06/20 09:25:21;;;;;;;6.45;3.05;;;13.00;99.90;;;;;;6702857;88;20194;-78
2022/06/20 09:35:31;;;;;;;7.35;3.47;;;12.70;99.90;;;;;;6712090;88;20191;-79
2022/06/20 09:45:44;;;;;;;8.50;3.40;;;12.70;99.90;;;;;;6713991;88;20281;-79
2022/06/20 09:56:03;;;;;;;7.07;3.70;;;13.10;99.90;;;;;;6695519;88;20225;-78
2022/06/20 10:06:10;;;;;;;7.37;3.50;;;13.20;99.90;;;;;;6706504;88;20316;-78
2022/06/20 10:16:18;;;;;;;6.68;3.10;;;13.50;99.90;;;;;;6725008;88;20193;-79
2022/06/20 10:26:59;;;;;;;7.95;3.42;;;13.70;99.90;;;;;;6730007;88;20201;-79
2022/06/20 10:37:25;;;;;;;10.48;3.53;;;13.80;99.90;;;;;;6719282;88;20308;-79
2022/06/20 10:48:04;;;;;;;7.97;3.33;;;13.80;99.90;;;;;;6714165;88;20194;-78
2022/06/20 10:58:27;;;;;;;8.10;3.17;;;14.00;99.90;;;;;;6713510;88;20712;-78
2022/06/20 11:09:03;;;;;;;7.57;3.30;;;14.20;99.90;;;;;;6696849;88;20194;-79
2022/06/20 11:19:26;;;;;;;11.12;3.35;;;14.40;99.90;;;;;;6710867;88;20577;-78
2022/06/20 11:29:57;;;;;;;8.85;3.50;;;15.30;99.90;;;;;;6707182;88;20205;-79
2022/06/20 11:40:14;;;;;;;8.07;3.30;;;15.70;99.90;;;;;;6713327;88;20193;-78
2022/06/20 11:50:32;;;;;;;9.25;3.95;;;15.60;99.90;;;;;;6692478;88;20207;-79
2022/06/20 12:00:40;;;;;;;8.77;4.03;;;15.60;99.90;;;;;;6699956;88;20193;-80
2022/06/20 12:10:50;;;;;;;9.02;4.07;;;15.80;99.90;;;;;;6705423;88;20325;-79
2022/06/20 12:31:54;;;;;;;13.50;5.60;;;16.20;99.90;;;;;;6729782;76;20213;-79
2022/06/20 12:42:01;;;;;;;11.45;5.32;;;17.10;99.90;;;;;;6666095;88;20189;-79
2022/06/20 12:52:18;;;;;;;10.52;4.90;;;19.00;99.90;;;;;;6663929;88;20230;-79
2022/06/20 13:02:52;;;;;;;9.95;4.93;;;20.50;99.90;;;;;;6657062;89;20235;-81
2022/06/20 13:13:12;;;;;;;10.50;5.03;;;20.60;99.90;;;;;;6671360;89;20244;-81
2022/06/20 13:23:15;;;;;;;8.30;4.97;;;21.50;99.90;;;;;;6674607;89;20519;-79
2022/06/20 13:33:36;;;;;;;9.13;4.43;;;21.10;99.90;;;;;;6678700;88;20827;-78
2022/06/20 13:44:01;;;;;;;7.32;3.62;;;21.60;99.90;;;;;;6677187;89;20207;-78
2022/06/20 13:54:22;;;;;;;7.65;3.87;;;22.80;99.90;;;;;;6668244;89;20354;-79
2022/06/20 14:04:23;;;;;;;7.57;3.80;;;24.10;99.90;;;;;;6661344;89;20203;-78
2022/06/20 14:14:29;;;;;;;5.07;3.50;;;23.70;99.90;;;;;;6690619;88;20706;-79
2022/06/20 14:24:36;;;;;;;6.90;3.25;;;23.70;99.90;;;;;;6677371;89;20187;-77
2022/06/20 14:45:16;;;;;;;6.97;2.78;;;23.60;99.90;;;;;;6673265;89;20236;-78
2022/06/20 14:55:29;;;;;;;5.37;2.20;;;24.50;99.90;;;;;;6671228;88;20208;-78
2022/06/20 15:05:52;;;;;;;5.60;2.10;;;25.10;99.30;;;;;;6679646;89;20221;-78
2022/06/20 15:15:52;;;;;;;3.50;1.90;;;25.00;93.50;;;;;;6676066;88;20629;-78
2022/06/20 15:26:06;;;;;;;3.03;1.60;;;24.50;91.60;;;;;;6676243;89;20220;-78
2022/06/20 15:36:14;;;;;;;;;;;24.20;92.40;;;;;;6670833;89;20222;-78
2022/06/20 15:46:38;;;;;;;4.93;2.20;;;24.90;92.00;;;;;;6664270;88;20064;-78
2022/06/20 15:57:00;;;;;;;5.37;1.70;;;24.60;91.00;;;;;;6671471;89;20280;-77
2022/06/20 16:07:09;;;;;;;5.25;1.98;;;23.50;91.60;;;;;;6671538;88;20191;-78
2022/06/20 16:17:10;;;;;;;4.05;2.08;;;23.20;90.80;;;;;;6665582;89;20180;-77
2022/06/20 16:27:28;;;;;;;6.53;2.00;;;24.20;90.60;;;;;;6661014;89;20213;-77
2022/06/20 16:37:30;;;;;;;4.72;2.05;;;23.60;89.50;;;;;;6659296;89;20192;-77
2022/06/20 16:47:43;;;;;;;4.93;2.37;;;23.10;88.60;;;;;;6671829;89;20680;-79
2022/06/20 16:57:49;;;;;;;6.85;2.33;;;22.80;86.30;;;;;;6660327;89;20216;-76
2022/06/20 17:07:52;;;;;;;4.57;1.60;;;22.90;87.80;;;;;;6668734;89;20321;-76
2022/06/20 17:17:59;;;;;;;5.93;2.10;;;22.80;88.50;;;;;;6670290;89;20780;-77
2022/06/20 17:28:14;;;;;;;6.70;2.00;;;22.30;89.60;;;;;;6668981;89;20297;-77
2022/06/20 17:38:44;;;;;;;4.47;1.92;;;22.90;84.10;;;;;;6661953;89;20711;-77
2022/06/20 17:49:14;;;;;;;6.22;1.90;;;23.20;83.00;;;;;;6672267;89;20197;-77
2022/06/20 17:59:34;;;;;;;5.65;2.20;;;24.80;82.10;;;;;;6657510;89;20187;-78
2022/06/20 18:09:45;;;;;;;6.10;2.35;;;24.40;82.50;;;;;;6674875;89;20277;-78
2022/06/20 18:19:54;;;;;;;5.10;2.20;;;23.20;84.70;;;;;;6658332;89;20235;-78
2022/06/20 18:41:04;;;;;;;5.93;1.48;;;23.30;82.20;;;;;;6699284;88;20195;-81
2022/06/20 18:51:08;;;;;;;5.90;1.90;;;21.60;84.40;;;;;;6690924;88;20222;-81
2022/06/20 19:01:20;;;;;;;7.53;1.60;;;21.00;87.00;;;;;;6689007;88;20187;-79
2022/06/20 19:12:03;;;;;;;3.90;1.60;;;20.30;90.60;;;;;;6697097;88;20310;-79
2022/06/20 19:22:52;;;;;;;5.57;1.50;;;19.80;91.30;;;;;;6697144;88;20956;-81
2022/06/20 19:34:43;;;;;;;;;;;;;;;;;;;;;
2022/06/20 19:44:27;;;;;;;5.62;1.52;;;19.10;94.40;;;;;;6617525;89;20193;-80
2022/06/20 19:54:28;;;;;;;7.12;1.80;;;18.80;96.30;;;;;;6646994;88;20209;-81
2022/06/20 20:04:40;;;;;;;5.85;1.80;;;18.40;98.10;;;;;;6701745;88;20266;-81
2022/06/20 20:14:44;;;;;;;6.40;1.80;;;18.00;99.90;;;;;;6694623;88;20194;-80
2022/06/20 20:25:24;;;;;;;6.82;1.90;;;17.60;99.90;;;;;;6691670;88;20317;-79
2022/06/20 20:35:49;;;;;;;6.68;2.20;;;17.40;99.90;;;;;;6691014;88;20219;-79
2022/06/20 20:46:32;;;;;;;4.82;2.20;;;17.20;99.90;;;;;;6686491;88;20196;-79
2022/06/20 20:56:43;;;;;;;8.43;2.50;;;17.00;99.90;;;;;;6692678;88;20733;-79
2022/06/20 21:06:48;;;;;;;7.22;2.05;;;16.70;99.90;;;;;;6689889;88;20195;-79
2022/06/20 21:16:54;;;;;;;6.45;2.40;;;16.50;99.90;;;;;;6687781;88;20186;-79
2022/06/20 21:26:58;;;;;;;5.95;2.30;;;16.30;99.90;;;;;;6691760;88;20221;-80
2022/06/20 21:37:01;;;;;;;9.25;2.10;;;16.10;99.90;;;;;;6691665;88;20199;-80
2022/06/20 21:47:13;;;;;;;7.78;2.65;;;15.90;99.90;;;;;;6691250;88;20623;-79
2022/06/20 21:57:18;;;;;;;6.10;2.60;;;15.90;99.90;;;;;;6690825;88;20256;-79
2022/06/20 22:07:19;;;;;;;;;;;15.70;99.90;;;;;;6693027;88;20208;-80
2022/06/20 22:17:48;;;;;;;4.72;2.40;;;15.60;99.90;;;;;;6691599;88;20061;-78
2022/06/20 22:27:52;;;;;;;6.30;2.62;;;15.50;99.90;;;;;;6689560;88;20194;-78
2022/06/20 22:38:00;;;;;;;6.50;2.90;;;15.50;99.90;;;;;;6689345;88;20211;-78
2022/06/20 22:48:03;;;;;;;8.02;3.17;;;15.30;99.90;;;;;;6689270;88;20190;-78
2022/06/20 22:58:07;;;;;;;6.60;3.00;;;15.00;99.90;;;;;;6689265;88;20198;-78
2022/06/20 23:08:07;;;;;;;8.00;3.10;;;14.90;99.90;;;;;;6685938;88;20227;-79
2022/06/20 23:28:35;;;;;;;6.22;2.72;;;14.90;99.90;;;;;;6696066;88;20715;-79
2022/06/20 23:38:41;;;;;;;5.32;3.03;;;14.40;99.90;;;;;;6711066;88;20304;-79
2022/06/20 23:48:42;;;;;;;5.10;2.90;;;14.30;99.90;;;;;;6689095;88;20220;-79
2022/06/20 23:58:46;;;;;;;7.70;3.28;;;14.20;99.90;;;;;;6688855;88;20190;-78
